Time;durP1;ratioP1;P1;durP2;ratioP2;P2;SDS_P1;SDS_P2;PMS_P1;PMS_P2;Temp;Humidity;BMP_temperature;BMP_pressure;BME280_temperature;BME280_humidity;BME280_pressure;Samples;Min_cycle;Max_cycle;Signal;HPM_P1;HPM_P2
2022/04/08 00:02:26;;;;;;;4.00;1.05;;;23.50;41.70;;;;;;6160810;28;81010;-65
2022/04/08 00:05:27;;;;;;;2.10;1.10;;;23.60;41.90;;;;;;6126536;28;83777;-65
2022/04/08 00:08:28;;;;;;;1.23;0.88;;;23.60;41.90;;;;;;6160448;28;80297;-65
2022/04/08 00:11:28;;;;;;;0.73;0.73;;;23.60;41.90;;;;;;6161119;28;80390;-65
2022/04/08 00:14:29;;;;;;;1.10;0.98;;;23.60;42.00;;;;;;6160533;28;81640;-65
2022/04/08 00:17:29;;;;;;;1.20;0.73;;;23.50;42.10;;;;;;6142567;28;81223;-65
2022/04/08 00:20:32;;;;;;;1.08;0.90;;;23.50;42.10;;;;;;6160933;28;80931;-64
2022/04/08 00:23:32;;;;;;;1.17;1.00;;;23.50;42.00;;;;;;6160637;28;80976;-65
2022/04/08 00:26:33;;;;;;;1.17;0.90;;;23.50;42.10;;;;;;6159961;28;81320;-65
2022/04/08 00:29:33;;;;;;;1.48;0.90;;;23.60;42.30;;;;;;6161346;28;81955;-66
2022/04/08 00:32:34;;;;;;;1.45;1.00;;;23.60;42.30;;;;;;6161030;28;81932;-66
2022/04/08 00:35:34;;;;;;;1.05;0.82;;;23.50;42.30;;;;;;6142563;28;81763;-67
2022/04/08 00:38:35;;;;;;;0.98;0.90;;;23.50;42.20;;;;;;6160571;28;80968;-66
2022/04/08 00:41:36;;;;;;;2.25;1.05;;;23.60;42.30;;;;;;6160999;28;80194;-66
2022/04/08 00:44:36;;;;;;;1.17;0.90;;;23.60;42.20;;;;;;6160386;28;80368;-66
2022/04/08 00:47:40;;;;;;;1.08;0.80;;;23.60;42.20;;;;;;6160066;28;81495;-66
2022/04/08 00:50:41;;;;;;;2.42;1.00;;;23.60;42.40;;;;;;6160276;28;80412;-66
2022/04/08 00:53:41;;;;;;;2.58;1.02;;;23.60;42.40;;;;;;6159649;28;80536;-66
2022/04/08 00:56:42;;;;;;;0.75;0.75;;;23.60;42.40;;;;;;6160036;28;80498;-65
2022/04/08 00:59:43;;;;;;;0.95;0.90;;;23.60;42.40;;;;;;6159809;28;82194;-65
2022/04/08 01:02:43;;;;;;;1.23;0.98;;;23.60;42.50;;;;;;6160067;28;80817;-65
2022/04/08 01:05:44;;;;;;;0.80;0.80;;;23.60;42.50;;;;;;6159974;28;81039;-66
2022/04/08 01:08:45;;;;;;;1.40;0.82;;;23.60;42.60;;;;;;6159269;28;81310;-65
2022/04/08 01:11:46;;;;;;;1.95;0.95;;;23.60;42.70;;;;;;6159634;28;80042;-64
2022/04/08 01:14:46;;;;;;;2.15;0.98;;;23.60;42.60;;;;;;6159448;28;80506;-64
2022/04/08 01:17:47;;;;;;;1.98;1.33;;;23.60;42.60;;;;;;6159326;28;80040;-64
2022/04/08 01:20:48;;;;;;;1.52;1.10;;;23.60;42.50;;;;;;6159726;28;80854;-64
2022/04/08 01:23:48;;;;;;;1.33;1.20;;;23.60;42.60;;;;;;6159859;28;80417;-64
2022/04/08 01:26:49;;;;;;;3.53;1.20;;;23.60;42.60;;;;;;6159926;28;80487;-64
2022/04/08 01:29:49;;;;;;;1.20;0.88;;;23.60;42.60;;;;;;6160076;28;80377;-64
2022/04/08 01:32:50;;;;;;;1.08;0.98;;;23.60;42.50;;;;;;6142278;28;81738;-64
2022/04/08 01:35:50;;;;;;;1.20;1.10;;;23.60;42.80;;;;;;6141613;28;81648;-64
2022/04/08 01:38:51;;;;;;;1.60;1.15;;;23.60;42.80;;;;;;6160046;28;80283;-64
2022/04/08 01:41:51;;;;;;;1.23;0.95;;;23.60;42.80;;;;;;6159804;28;80483;-63
2022/04/08 01:44:52;;;;;;;1.98;1.17;;;23.60;42.80;;;;;;6159574;28;80209;-63
2022/04/08 01:47:52;;;;;;;1.10;1.00;;;23.60;42.60;;;;;;6159401;28;80241;-63
2022/04/08 01:50:53;;;;;;;3.50;1.30;;;23.60;42.70;;;;;;6158584;28;85100;-66
2022/04/08 01:53:54;;;;;;;2.25;1.20;;;23.60;42.80;;;;;;6159425;28;80432;-64
2022/04/08 01:56:54;;;;;;;1.67;1.15;;;23.60;42.80;;;;;;6158844;28;80341;-64
2022/04/08 01:59:55;;;;;;;2.13;1.27;;;23.60;42.90;;;;;;6159088;28;80447;-64
2022/04/08 02:02:55;;;;;;;0.88;0.85;;;23.60;43.00;;;;;;6158960;28;81459;-66
2022/04/08 02:05:56;;;;;;;1.15;1.05;;;23.60;43.00;;;;;;6158509;28;80066;-64
2022/04/08 02:08:57;;;;;;;2.50;1.20;;;23.60;42.90;;;;;;6158870;28;80438;-64
2022/04/08 02:11:57;;;;;;;1.60;1.15;;;23.60;43.10;;;;;;6158888;28;80221;-64
2022/04/08 02:14:58;;;;;;;1.50;1.05;;;23.60;43.00;;;;;;6158864;28;80823;-64
2022/04/08 02:17:58;;;;;;;1.70;1.17;;;23.60;42.90;;;;;;6158704;28;80624;-64
2022/04/08 02:21:00;;;;;;;2.15;1.13;;;23.60;43.00;;;;;;6148922;28;80806;-65
2022/04/08 02:24:03;;;;;;;1.33;1.13;;;23.60;42.90;;;;;;6158766;28;81403;-64
2022/04/08 02:27:06;;;;;;;1.75;1.13;;;23.60;43.00;;;;;;6158824;28;80335;-65
2022/04/08 02:30:07;;;;;;;1.30;1.05;;;23.60;42.90;;;;;;6140872;28;80160;-64
2022/04/08 02:33:08;;;;;;;1.95;1.08;;;23.60;43.10;;;;;;6133413;28;80563;-64
2022/04/08 02:36:08;;;;;;;1.63;1.13;;;23.60;43.10;;;;;;6149729;28;80670;-65
2022/04/08 02:39:09;;;;;;;1.80;1.13;;;23.60;43.10;;;;;;6159098;28;80803;-65
2022/04/08 02:42:09;;;;;;;1.95;1.40;;;23.60;43.10;;;;;;6158489;28;81362;-64
2022/04/08 02:45:10;;;;;;;2.78;1.00;;;23.60;43.10;;;;;;6159032;28;80995;-64
2022/04/08 02:48:13;;;;;;;1.25;1.00;;;23.60;43.10;;;;;;6158168;28;80696;-64
2022/04/08 02:51:14;;;;;;;2.65;1.10;;;23.60;43.20;;;;;;6158237;28;80617;-64
2022/04/08 02:54:15;;;;;;;2.25;1.05;;;23.60;43.10;;;;;;6157959;28;81664;-64
2022/04/08 02:57:16;;;;;;;2.38;1.20;;;23.60;43.20;;;;;;6157839;28;81160;-64
2022/04/08 03:00:16;;;;;;;1.23;1.13;;;23.60;43.10;;;;;;6157845;28;80622;-65
2022/04/08 03:03:17;;;;;;;1.27;1.17;;;23.60;43.10;;;;;;6154833;28;80153;-65
2022/04/08 03:06:17;;;;;;;1.40;0.95;;;23.60;43.20;;;;;;6157707;28;81174;-64
2022/04/08 03:09:18;;;;;;;1.25;1.10;;;23.60;43.10;;;;;;6157913;28;85397;-64
2022/04/08 03:12:18;;;;;;;1.80;1.40;;;23.60;42.80;;;;;;6158157;28;80615;-64
2022/04/08 03:15:19;;;;;;;1.77;1.10;;;23.50;43.00;;;;;;6150086;28;81591;-64
2022/04/08 03:18:20;;;;;;;1.80;1.20;;;23.50;42.40;;;;;;6155806;28;80549;-64
2022/04/08 03:21:20;;;;;;;2.60;1.30;;;23.50;42.30;;;;;;6157870;28;80301;-64
2022/04/08 03:24:21;;;;;;;3.08;1.67;;;23.60;42.10;;;;;;6157635;28;80274;-65
2022/04/08 03:27:21;;;;;;;5.18;1.35;;;23.60;41.90;;;;;;6157950;28;80916;-66
2022/04/08 03:30:22;;;;;;;1.73;1.30;;;23.60;41.80;;;;;;6155106;28;80862;-66
2022/04/08 03:33:22;;;;;;;2.80;1.38;;;23.60;42.50;;;;;;6156473;28;80555;-69
2022/04/08 03:36:23;;;;;;;1.80;1.52;;;23.70;41.70;;;;;;6157716;28;85996;-67
2022/04/08 03:39:23;;;;;;;2.95;1.30;;;23.70;41.60;;;;;;6157671;28;81447;-66
2022/04/08 03:42:25;;;;;;;1.90;1.17;;;23.80;41.50;;;;;;6157843;28;80368;-67
2022/04/08 03:45:26;;;;;;;1.15;1.00;;;23.80;41.30;;;;;;6157358;28;80312;-66
2022/04/08 03:48:26;;;;;;;2.28;1.65;;;23.80;41.10;;;;;;6158917;28;80515;-66
2022/04/08 03:51:27;;;;;;;1.63;1.23;;;23.80;40.90;;;;;;6160840;28;80392;-65
2022/04/08 03:54:27;;;;;;;4.25;1.40;;;23.80;40.90;;;;;;6138835;28;81751;-66
2022/04/08 03:57:28;;;;;;;2.08;1.50;;;23.70;40.80;;;;;;6160448;28;81730;-67
2022/04/08 04:00:28;;;;;;;2.47;1.58;;;23.80;40.90;;;;;;6161316;28;80415;-68
2022/04/08 04:03:29;;;;;;;2.40;1.23;;;23.80;40.80;;;;;;6160922;28;80390;-66
2022/04/08 04:06:30;;;;;;;3.67;1.73;;;23.80;40.70;;;;;;6155417;28;81204;-67
2022/04/08 04:09:30;;;;;;;4.80;1.38;;;23.80;40.90;;;;;;6133693;28;81185;-66
2022/04/08 04:12:31;;;;;;;3.50;1.30;;;23.80;41.20;;;;;;6153436;28;80201;-73
2022/04/08 04:15:31;;;;;;;2.55;1.55;;;23.90;41.40;;;;;;6161693;28;80290;-72
2022/04/08 04:18:32;;;;;;;3.35;1.50;;;23.90;41.10;;;;;;6160530;28;80585;-66
2022/04/08 04:21:33;;;;;;;1.52;1.13;;;23.90;41.20;;;;;;6161428;28;81490;-67
2022/04/08 04:24:33;;;;;;;5.40;1.25;;;23.90;41.40;;;;;;6157451;28;80547;-66
2022/04/08 04:27:34;;;;;;;4.45;1.40;;;24.00;41.90;;;;;;6168157;28;80688;-65
2022/04/08 04:30:34;;;;;;;2.00;1.40;;;24.00;42.40;;;;;;6182446;28;80645;-65
2022/04/08 04:33:35;;;;;;;8.52;1.77;;;24.00;42.30;;;;;;6176399;28;81099;-68
2022/04/08 04:36:35;;;;;;;1.42;1.17;;;24.00;42.40;;;;;;6146897;28;80171;-67
2022/04/08 04:39:36;;;;;;;1.15;1.00;;;24.00;42.30;;;;;;6166178;28;80312;-72
2022/04/08 04:42:36;;;;;;;3.15;1.35;;;24.00;41.80;;;;;;6138316;28;80352;-74
2022/04/08 04:45:38;;;;;;;2.15;1.42;;;24.00;41.40;;;;;;6159917;28;80389;-73
2022/04/08 04:48:39;;;;;;;3.20;1.52;;;24.00;41.00;;;;;;6160441;28;80842;-68
2022/04/08 04:51:40;;;;;;;1.80;1.33;;;24.00;41.40;;;;;;6179946;28;80661;-70
2022/04/08 04:54:41;;;;;;;3.35;1.65;;;24.00;41.20;;;;;;6163653;28;80600;-67
2022/04/08 04:57:41;;;;;;;6.07;1.80;;;24.00;41.00;;;;;;6136655;28;80486;-67
2022/04/08 05:00:42;;;;;;;5.38;1.70;;;24.00;41.60;;;;;;6156545;28;80381;-70
2022/04/08 05:03:42;;;;;;;3.45;1.88;;;24.00;41.30;;;;;;6151656;28;80580;-73
2022/04/08 05:06:43;;;;;;;3.97;1.70;;;24.00;41.10;;;;;;6160602;28;80607;-67
2022/04/08 05:09:43;;;;;;;4.07;1.75;;;24.00;40.90;;;;;;6159490;28;80459;-65
2022/04/08 05:12:44;;;;;;;3.45;1.92;;;23.90;41.00;;;;;;6160184;28;81513;-65
2022/04/08 05:15:45;;;;;;;4.30;1.90;;;23.90;41.10;;;;;;6160133;28;80553;-66
2022/04/08 05:18:45;;;;;;;6.40;2.05;;;23.90;40.90;;;;;;6142991;28;80528;-65
2022/04/08 05:21:46;;;;;;;5.95;1.88;;;24.00;41.60;;;;;;6143306;28;80384;-66
2022/04/08 05:24:47;;;;;;;7.85;2.00;;;24.00;41.50;;;;;;6160770;28;81018;-67
2022/04/08 05:27:47;;;;;;;4.32;1.75;;;24.00;41.10;;;;;;6150732;28;80856;-66
2022/04/08 05:30:48;;;;;;;4.85;1.63;;;24.00;40.90;;;;;;6135200;28;80469;-67
2022/04/08 05:33:48;;;;;;;3.45;1.90;;;24.00;41.30;;;;;;6137660;28;80558;-66
2022/04/08 05:36:49;;;;;;;3.22;1.75;;;24.00;41.20;;;;;;6136042;28;80713;-65
2022/04/08 05:39:49;;;;;;;5.47;1.92;;;24.00;40.80;;;;;;6145189;28;80418;-72
2022/04/08 05:42:50;;;;;;;8.73;1.80;;;24.10;41.00;;;;;;6140512;28;80495;-66
2022/04/08 05:45:52;;;;;;;2.65;1.75;;;24.00;40.70;;;;;;6150191;28;80361;-73
2022/04/08 05:48:52;;;;;;;4.55;1.48;;;24.10;41.00;;;;;;6145762;28;80667;-72
2022/04/08 05:51:53;;;;;;;4.78;1.48;;;24.00;41.00;;;;;;6137796;28;81444;-70
2022/04/08 05:54:53;;;;;;;3.33;1.52;;;24.10;40.90;;;;;;6140461;28;80454;-71
2022/04/08 05:57:56;;;;;;;4.13;1.92;;;24.10;40.20;;;;;;6158781;28;80358;-71
2022/04/08 06:00:57;;;;;;;3.88;1.88;;;24.10;40.40;;;;;;6148485;28;80383;-72
2022/04/08 06:03:57;;;;;;;4.53;1.73;;;24.00;40.40;;;;;;6136501;28;80488;-68
2022/04/08 06:06:58;;;;;;;4.22;1.63;;;24.00;40.40;;;;;;6135037;28;80368;-68
2022/04/08 06:09:59;;;;;;;4.43;1.65;;;24.00;40.30;;;;;;6134263;28;80623;-69
2022/04/08 06:13:01;;;;;;;3.42;1.73;;;24.00;40.80;;;;;;6132189;28;80742;-69
2022/04/08 06:16:01;;;;;;;3.40;1.67;;;24.00;40.30;;;;;;6147626;28;80367;-72
2022/04/08 06:19:02;;;;;;;4.35;1.95;;;24.00;40.20;;;;;;6145766;28;80813;-72
2022/04/08 06:22:02;;;;;;;2.55;1.40;;;24.00;39.90;;;;;;6153746;28;80678;-69
2022/04/08 06:25:03;;;;;;;4.15;2.03;;;24.00;40.60;;;;;;6155322;28;82854;-69
2022/04/08 06:28:04;;;;;;;5.60;1.73;;;24.00;39.70;;;;;;6166881;28;81501;-69
2022/04/08 06:31:04;;;;;;;4.30;1.75;;;24.00;39.50;;;;;;6154467;28;80834;-69
2022/04/08 06:34:05;;;;;;;2.60;1.65;;;24.00;39.50;;;;;;6147817;28;81535;-70
2022/04/08 06:37:05;;;;;;;3.50;1.88;;;24.00;39.40;;;;;;6178100;28;80243;-70
2022/04/08 06:40:06;;;;;;;5.13;1.77;;;24.00;39.40;;;;;;6159762;28;80877;-71
2022/04/08 06:43:07;;;;;;;2.00;1.50;;;24.00;39.20;;;;;;6149242;28;80429;-69
2022/04/08 06:46:07;;;;;;;2.92;1.50;;;24.00;39.30;;;;;;6180469;28;80330;-72
2022/04/08 06:49:08;;;;;;;5.90;2.10;;;24.00;39.40;;;;;;6167703;28;81773;-70
2022/04/08 06:52:08;;;;;;;5.68;1.70;;;24.00;39.40;;;;;;6150753;28;80651;-71
2022/04/08 06:55:09;;;;;;;3.97;1.83;;;24.00;39.40;;;;;;6158013;28;80390;-71
2022/04/08 06:58:09;;;;;;;2.67;1.60;;;24.00;39.30;;;;;;6153309;28;81670;-71
2022/04/08 07:01:10;;;;;;;3.22;1.40;;;24.00;39.20;;;;;;6161914;28;80509;-71
2022/04/08 07:04:10;;;;;;;2.15;1.58;;;24.00;39.40;;;;;;6157922;28;80344;-70
2022/04/08 07:07:11;;;;;;;2.70;1.38;;;24.00;39.10;;;;;;6141784;28;80411;-72
2022/04/08 07:10:12;;;;;;;2.22;1.38;;;24.00;39.20;;;;;;6157906;28;80226;-71
2022/04/08 07:13:12;;;;;;;1.85;1.50;;;24.00;39.30;;;;;;6168539;28;80638;-70
2022/04/08 07:16:14;;;;;;;4.65;1.48;;;24.00;39.40;;;;;;6155409;28;80722;-69
2022/04/08 07:19:14;;;;;;;2.17;1.48;;;24.00;39.30;;;;;;6171513;28;81586;-69
2022/04/08 07:22:15;;;;;;;3.38;1.58;;;24.10;39.60;;;;;;6158035;28;80507;-71
2022/04/08 07:25:15;;;;;;;3.15;1.33;;;24.10;39.40;;;;;;6175812;28;80694;-70
2022/04/08 07:28:16;;;;;;;2.05;1.60;;;24.00;39.40;;;;;;6160410;28;80420;-70
2022/04/08 07:31:17;;;;;;;2.00;1.52;;;24.00;39.20;;;;;;6162481;28;80310;-71
2022/04/08 07:34:17;;;;;;;4.55;1.83;;;24.10;39.00;;;;;;6178892;28;80283;-72
2022/04/08 07:37:18;;;;;;;3.85;1.85;;;24.10;39.60;;;;;;6160620;28;80549;-70
2022/04/08 07:40:19;;;;;;;3.17;1.60;;;24.10;39.80;;;;;;6161832;28;82974;-72
2022/04/08 07:43:19;;;;;;;2.45;1.60;;;24.10;39.50;;;;;;6174013;28;80383;-73
2022/04/08 07:46:20;;;;;;;3.75;1.90;;;24.10;39.90;;;;;;6187040;28;80349;-74
2022/04/08 07:49:20;;;;;;;2.78;1.45;;;24.10;39.60;;;;;;6170717;28;80301;-72
2022/04/08 07:52:21;;;;;;;5.20;1.80;;;24.10;39.60;;;;;;6144151;28;80873;-73
2022/04/08 07:55:24;;;;;;;4.38;1.67;;;24.10;39.80;;;;;;6162233;28;80200;-70
2022/04/08 07:58:24;;;;;;;4.00;2.10;;;24.10;39.70;;;;;;6147597;28;81801;-74
2022/04/08 08:01:25;;;;;;;2.15;1.70;;;24.10;39.50;;;;;;6186195;28;80353;-72
2022/04/08 08:04:25;;;;;;;3.30;1.90;;;24.10;39.50;;;;;;6161260;28;80126;-74
2022/04/08 08:07:26;;;;;;;3.63;1.40;;;24.10;39.60;;;;;;6161181;28;81413;-72
2022/04/08 08:10:27;;;;;;;3.55;1.60;;;24.10;40.10;;;;;;6151469;28;80673;-74
2022/04/08 08:13:27;;;;;;;2.65;1.30;;;24.10;39.70;;;;;;6176088;28;79951;-74
2022/04/08 08:16:28;;;;;;;3.33;1.45;;;24.10;39.80;;;;;;6177632;28;80723;-74
2022/04/08 08:19:28;;;;;;;2.33;1.55;;;24.10;39.50;;;;;;6165143;28;81907;-71
2022/04/08 08:22:29;;;;;;;1.50;1.23;;;24.20;39.70;;;;;;6162423;28;80361;-71
2022/04/08 08:25:29;;;;;;;2.17;1.38;;;24.10;39.80;;;;;;6162552;28;80264;-71
2022/04/08 08:28:30;;;;;;;3.38;1.90;;;24.10;39.60;;;;;;6147063;28;81464;-72
2022/04/08 08:31:31;;;;;;;27.85;11.90;;;24.20;39.60;;;;;;6137989;28;80152;-72
2022/04/08 08:34:31;;;;;;;46.53;18.63;;;24.10;39.90;;;;;;6134800;28;82845;-76
2022/04/08 08:37:32;;;;;;;39.08;16.88;;;24.10;40.10;;;;;;6134761;28;83187;-74
2022/04/08 08:40:32;;;;;;;41.90;15.88;;;24.20;39.80;;;;;;6140888;28;83069;-77
2022/04/08 08:43:33;;;;;;;37.95;17.65;;;24.20;39.60;;;;;;6159009;28;83125;-74
2022/04/08 08:46:34;;;;;;;44.22;17.40;;;24.20;39.50;;;;;;6158361;28;83342;-76
2022/04/08 08:49:35;;;;;;;36.65;17.40;;;24.10;39.70;;;;;;6158579;28;83321;-77
2022/04/08 08:52:35;;;;;;;40.90;17.52;;;24.10;39.60;;;;;;6137007;28;84891;-74
2022/04/08 08:55:36;;;;;;;45.38;17.75;;;24.10;39.60;;;;;;6138660;28;83986;-72
2022/04/08 08:58:37;;;;;;;33.20;17.00;;;24.10;39.70;;;;;;6115621;28;84138;-70
2022/04/08 09:01:37;;;;;;;35.30;16.35;;;24.10;39.70;;;;;;6133395;28;83680;-72
2022/04/08 09:04:38;;;;;;;32.33;15.02;;;24.10;39.90;;;;;;6133163;28;84402;-73
2022/04/08 09:07:38;;;;;;;31.60;14.55;;;24.10;40.10;;;;;;6133523;28;83112;-73
2022/04/08 09:10:39;;;;;;;35.00;15.85;;;24.10;39.90;;;;;;6155095;28;83420;-74
2022/04/08 09:13:39;;;;;;;30.90;13.20;;;24.10;39.90;;;;;;6155053;28;84059;-74
2022/04/08 09:16:40;;;;;;;27.60;13.48;;;24.10;40.10;;;;;;6154665;28;83001;-69
2022/04/08 09:19:41;;;;;;;28.85;13.77;;;24.10;40.20;;;;;;6154560;28;83561;-73
2022/04/08 09:22:41;;;;;;;25.45;12.23;;;24.10;39.90;;;;;;6157094;28;84123;-74
2022/04/08 09:25:42;;;;;;;26.42;12.18;;;24.10;40.10;;;;;;6145200;28;82901;-72
2022/04/08 09:28:43;;;;;;;25.90;11.02;;;24.10;40.20;;;;;;6150262;28;83083;-72
2022/04/08 09:31:43;;;;;;;24.40;10.43;;;24.10;40.10;;;;;;6174930;28;89872;-70
2022/04/08 09:34:44;;;;;;;22.13;9.68;;;24.10;40.20;;;;;;6166293;28;83522;-72
2022/04/08 09:37:44;;;;;;;23.17;10.63;;;24.10;40.20;;;;;;6171629;28;83154;-71
2022/04/08 09:40:45;;;;;;;20.92;9.02;;;24.10;40.10;;;;;;6166900;28;83581;-70
2022/04/08 09:43:45;;;;;;;19.63;8.35;;;24.00;40.10;;;;;;6143308;28;82710;-69
2022/04/08 09:46:46;;;;;;;15.73;8.30;;;24.10;40.00;;;;;;6159281;28;80395;-70
2022/04/08 09:49:46;;;;;;;19.48;8.65;;;24.00;39.90;;;;;;6159818;28;80879;-70
2022/04/08 09:52:47;;;;;;;15.02;7.25;;;24.00;39.70;;;;;;6148600;28;80510;-70
2022/04/08 09:55:47;;;;;;;15.65;7.15;;;24.10;39.80;;;;;;6135584;28;80365;-70
2022/04/08 09:58:48;;;;;;;17.45;7.65;;;24.10;39.70;;;;;;6154212;28;80649;-71
2022/04/08 10:01:49;;;;;;;14.85;7.53;;;24.10;39.70;;;;;;6158022;28;80764;-69
2022/04/08 10:04:49;;;;;;;13.40;6.72;;;24.10;39.60;;;;;;6152832;28;80604;-70
2022/04/08 10:07:52;;;;;;;14.38;6.85;;;24.10;39.60;;;;;;6150227;28;81684;-70
2022/04/08 10:10:52;;;;;;;12.38;6.03;;;24.10;39.40;;;;;;6134763;28;80641;-69
2022/04/08 10:13:53;;;;;;;12.48;5.97;;;24.10;39.50;;;;;;6135019;28;80960;-69
2022/04/08 10:16:53;;;;;;;16.23;6.32;;;24.20;39.20;;;;;;6156117;28;80654;-69
2022/04/08 10:19:54;;;;;;;15.40;6.38;;;24.20;39.10;;;;;;6155813;28;80495;-68
2022/04/08 10:22:55;;;;;;;15.48;5.35;;;24.20;39.00;;;;;;6159047;28;80595;-69
2022/04/08 10:25:55;;;;;;;12.50;5.68;;;24.20;38.90;;;;;;6159150;28;81170;-66
2022/04/08 10:28:56;;;;;;;9.77;5.45;;;24.20;38.50;;;;;;6158696;28;81431;-69
2022/04/08 10:31:56;;;;;;;9.55;4.53;;;24.20;38.50;;;;;;6159737;28;79993;-69
2022/04/08 10:34:57;;;;;;;9.95;4.75;;;24.20;38.70;;;;;;6159046;28;79963;-68
2022/04/08 10:37:57;;;;;;;8.20;3.97;;;24.20;38.40;;;;;;6159132;28;80522;-69
2022/04/08 10:40:58;;;;;;;9.63;4.15;;;24.20;38.40;;;;;;6159217;28;81505;-69
2022/04/08 10:43:58;;;;;;;11.10;4.68;;;24.20;38.20;;;;;;6157757;28;83220;-69
2022/04/08 10:47:00;;;;;;;7.68;4.50;;;24.20;38.10;;;;;;6151904;28;81655;-70
2022/04/08 10:50:00;;;;;;;9.30;4.45;;;24.20;38.30;;;;;;6155042;28;82282;-70
2022/04/08 10:53:01;;;;;;;7.55;3.72;;;24.20;38.10;;;;;;6158760;28;80407;-72
2022/04/08 10:56:02;;;;;;;5.35;3.42;;;24.30;38.10;;;;;;6151578;28;81763;-69
2022/04/08 10:59:02;;;;;;;6.70;3.75;;;24.30;38.00;;;;;;6158852;28;80560;-73
2022/04/08 11:02:05;;;;;;;7.43;3.50;;;24.30;38.10;;;;;;6186822;28;80811;-72
2022/04/08 11:05:06;;;;;;;8.80;3.83;;;24.30;38.10;;;;;;6147734;28;81717;-73
2022/04/08 11:08:06;;;;;;;5.40;3.17;;;24.30;38.30;;;;;;6172561;28;80928;-72
2022/04/08 11:11:07;;;;;;;6.85;3.38;;;24.30;38.30;;;;;;6150478;28;81307;-73
2022/04/08 11:14:07;;;;;;;7.63;3.75;;;24.30;37.90;;;;;;6175161;28;81061;-72
2022/04/08 11:17:08;;;;;;;5.63;3.55;;;24.30;38.10;;;;;;6164695;28;80945;-72
2022/04/08 11:20:09;;;;;;;7.00;3.20;;;24.30;37.50;;;;;;6156055;28;80762;-74
2022/04/08 11:23:10;;;;;;;3.78;2.63;;;24.30;37.20;;;;;;6146818;28;81926;-72
2022/04/08 11:26:10;;;;;;;8.40;3.15;;;24.30;37.20;;;;;;6156419;28;80618;-73
2022/04/08 11:29:11;;;;;;;7.70;2.80;;;24.30;37.30;;;;;;6166836;28;81820;-72
2022/04/08 11:32:11;;;;;;;5.68;2.90;;;24.30;37.30;;;;;;6174765;28;81359;-69
2022/04/08 11:35:12;;;;;;;8.13;2.70;;;24.20;37.20;;;;;;6167492;28;81152;-71
2022/04/08 11:38:12;;;;;;;6.60;3.00;;;24.30;37.30;;;;;;6174728;28;81710;-71
2022/04/08 11:41:13;;;;;;;4.95;2.88;;;24.20;37.30;;;;;;6172970;28;80647;-71
2022/04/08 11:44:13;;;;;;;3.80;2.25;;;24.30;37.20;;;;;;6170593;28;80742;-72
2022/04/08 11:47:17;;;;;;;6.60;2.90;;;24.30;37.00;;;;;;6175002;28;80328;-73
2022/04/08 11:50:17;;;;;;;6.55;2.58;;;24.30;37.20;;;;;;6173632;28;81481;-76
2022/04/08 11:53:18;;;;;;;4.60;2.33;;;24.30;37.60;;;;;;6145434;28;80303;-73
2022/04/08 11:56:18;;;;;;;4.90;2.20;;;24.40;37.60;;;;;;6158222;28;80917;-74
2022/04/08 11:59:19;;;;;;;3.92;2.10;;;24.40;37.30;;;;;;6164211;28;80563;-69
2022/04/08 12:02:19;;;;;;;4.88;2.58;;;24.40;37.30;;;;;;6162128;28;80373;-67
2022/04/08 12:05:24;;;;;;;4.72;2.38;;;24.50;38.10;;;;;;6172198;28;80932;-68
2022/04/08 12:08:25;;;;;;;6.72;2.28;;;24.60;38.10;;;;;;6157790;28;81395;-68
2022/04/08 12:11:25;;;;;;;4.55;2.65;;;24.50;38.30;;;;;;6167293;28;80689;-68
2022/04/08 12:14:26;;;;;;;16.75;2.60;;;24.50;38.00;;;;;;6172397;28;80235;-67
2022/04/08 12:17:27;;;;;;;4.70;2.67;;;24.60;37.50;;;;;;6160907;28;80842;-68
2022/04/08 12:20:27;;;;;;;4.97;2.22;;;24.50;37.40;;;;;;6161117;28;82081;-71
2022/04/08 12:23:28;;;;;;;4.22;2.40;;;24.40;38.00;;;;;;6161627;28;81066;-68
2022/04/08 12:26:29;;;;;;;6.32;2.38;;;24.50;38.30;;;;;;6155992;28;80617;-68
2022/04/08 12:29:29;;;;;;;6.25;2.35;;;24.50;38.60;;;;;;6142845;28;81767;-70
2022/04/08 12:32:30;;;;;;;6.32;2.58;;;24.60;38.10;;;;;;6155722;28;80452;-69
2022/04/08 12:35:30;;;;;;;5.03;2.33;;;24.70;38.30;;;;;;6156992;28;80303;-69
2022/04/08 12:38:31;;;;;;;6.35;2.85;;;24.70;38.70;;;;;;6150210;28;81028;-69
2022/04/08 12:41:31;;;;;;;3.28;2.47;;;24.70;38.20;;;;;;6153787;28;81742;-69
2022/04/08 12:44:32;;;;;;;3.70;2.30;;;24.70;37.90;;;;;;6153477;28;80285;-69
2022/04/08 12:47:33;;;;;;;6.82;2.15;;;24.70;37.90;;;;;;6157377;28;81239;-69
2022/04/08 12:50:33;;;;;;;3.38;2.05;;;24.70;37.90;;;;;;6155043;28;87580;-68
2022/04/08 12:53:34;;;;;;;4.45;2.30;;;24.70;37.90;;;;;;6153454;28;81166;-66
2022/04/08 12:56:34;;;;;;;5.03;2.20;;;24.70;38.00;;;;;;6155212;28;81467;-66
2022/04/08 12:59:35;;;;;;;15.38;2.10;;;24.70;38.10;;;;;;6175726;28;80248;-68
2022/04/08 13:02:35;;;;;;;9.57;2.20;;;24.70;38.30;;;;;;6160072;28;80471;-68
2022/04/08 13:05:36;;;;;;;7.40;2.75;;;24.70;38.50;;;;;;6161677;28;80417;-68
2022/04/08 13:08:36;;;;;;;5.10;1.73;;;24.70;38.90;;;;;;6164640;28;80867;-63
2022/04/08 13:11:37;;;;;;;6.70;2.63;;;24.70;39.40;;;;;;6147070;28;80353;-65
2022/04/08 13:14:38;;;;;;;6.63;2.25;;;24.70;39.40;;;;;;6182450;28;80437;-66
2022/04/08 13:17:38;;;;;;;3.10;1.85;;;24.80;39.20;;;;;;6180893;28;81540;-66
2022/04/08 13:20:39;;;;;;;5.82;2.67;;;24.80;39.10;;;;;;6151077;28;80659;-68
2022/04/08 13:23:39;;;;;;;4.07;2.13;;;24.80;39.00;;;;;;6176607;28;80422;-67
2022/04/08 13:26:40;;;;;;;9.52;2.40;;;24.80;39.30;;;;;;6150038;28;80848;-71
2022/04/08 13:29:45;;;;;;;4.72;2.08;;;24.90;39.30;;;;;;6176532;28;81242;-70
2022/04/08 13:32:45;;;;;;;4.15;2.22;;;24.80;39.20;;;;;;6168462;28;80753;-74
2022/04/08 13:35:48;;;;;;;3.75;2.25;;;24.80;39.10;;;;;;6168733;28;80684;-73
2022/04/08 13:38:49;;;;;;;5.82;2.10;;;24.80;38.60;;;;;;6155367;28;80460;-71
2022/04/08 13:41:50;;;;;;;3.80;1.70;;;24.80;37.00;;;;;;6156069;28;83271;-70
2022/04/08 13:44:50;;;;;;;3.55;1.70;;;24.80;35.60;;;;;;6166787;28;80411;-74
2022/04/08 13:47:51;;;;;;;3.75;1.85;;;24.70;34.50;;;;;;6154699;28;81939;-74
2022/04/08 13:50:52;;;;;;;6.95;2.25;;;24.70;34.20;;;;;;6149342;28;80578;-67
2022/04/08 13:53:52;;;;;;;2.47;1.50;;;24.70;34.30;;;;;;6152841;28;80324;-69
2022/04/08 13:56:53;;;;;;;2.40;1.50;;;24.70;34.20;;;;;;6147316;28;81263;-69
2022/04/08 13:59:53;;;;;;;3.17;1.40;;;24.70;34.60;;;;;;6152541;28;85121;-68
2022/04/08 14:02:54;;;;;;;3.88;1.40;;;24.70;33.80;;;;;;6134004;28;81752;-68
2022/04/08 14:05:55;;;;;;;4.28;1.67;;;24.70;33.10;;;;;;6136474;28;82943;-65
2022/04/08 14:08:55;;;;;;;3.40;1.65;;;24.00;30.10;;;;;;6145955;28;80443;-66
2022/04/08 14:11:56;;;;;;;30.25;13.18;;;23.50;30.60;;;;;;6141107;28;83364;-67
2022/04/08 14:14:57;;;;;;;90.18;41.63;;;23.60;30.40;;;;;;6154474;28;82800;-66
2022/04/08 14:17:57;;;;;;;99.20;43.08;;;23.70;30.30;;;;;;6143664;28;82935;-65
2022/04/08 14:20:58;;;;;;;108.90;47.90;;;23.30;29.70;;;;;;6132557;28;83089;-67
2022/04/08 14:23:58;;;;;;;114.03;49.38;;;23.30;30.60;;;;;;6150035;28;84227;-67
2022/04/08 14:26:59;;;;;;;98.30;43.97;;;23.60;31.00;;;;;;6156875;28;82914;-67
2022/04/08 14:29:59;;;;;;;90.57;40.47;;;23.80;31.50;;;;;;6138293;28;83298;-68
2022/04/08 14:33:00;;;;;;;89.13;38.80;;;23.90;31.50;;;;;;6152580;28;86236;-67
2022/04/08 14:36:01;;;;;;;85.13;32.65;;;24.00;31.90;;;;;;6156705;28;83186;-67
2022/04/08 14:39:02;;;;;;;75.80;33.00;;;24.10;33.10;;;;;;6131377;28;83000;-66
2022/04/08 14:42:02;;;;;;;70.30;30.60;;;24.10;33.60;;;;;;6151971;28;83060;-68
2022/04/08 14:45:03;;;;;;;65.15;29.80;;;24.10;34.40;;;;;;6149544;28;83582;-68
2022/04/08 14:48:03;;;;;;;65.10;27.85;;;24.20;35.00;;;;;;6156182;28;83113;-67
2022/04/08 14:51:04;;;;;;;64.45;28.17;;;24.20;35.00;;;;;;6156460;28;83273;-67
2022/04/08 14:54:04;;;;;;;60.90;26.50;;;24.30;35.30;;;;;;6155955;28;83470;-67
2022/04/08 14:57:05;;;;;;;55.88;26.77;;;24.30;35.50;;;;;;6156258;28;83669;-67
2022/04/08 15:00:06;;;;;;;53.22;24.58;;;24.30;35.70;;;;;;6142369;28;83017;-66
2022/04/08 15:03:06;;;;;;;51.85;22.42;;;24.30;35.90;;;;;;6133482;28;82909;-67
2022/04/08 15:06:07;;;;;;;51.65;23.52;;;24.30;35.80;;;;;;6146934;28;84276;-67
2022/04/08 15:09:07;;;;;;;48.80;21.58;;;24.40;36.10;;;;;;6150676;28;83241;-67
2022/04/08 15:12:08;;;;;;;39.88;19.92;;;24.40;36.30;;;;;;6138033;28;84251;-67
2022/04/08 15:15:08;;;;;;;43.60;20.75;;;24.40;36.90;;;;;;6145795;28;82935;-69
2022/04/08 15:18:10;;;;;;;48.80;20.45;;;24.50;37.00;;;;;;6117948;28;84448;-67
2022/04/08 15:21:10;;;;;;;46.65;20.15;;;24.50;37.00;;;;;;6155193;28;82872;-67
2022/04/08 15:24:11;;;;;;;37.20;19.42;;;24.60;36.80;;;;;;6123431;28;85936;-68
2022/04/08 15:27:12;;;;;;;43.35;18.38;;;24.50;36.90;;;;;;6131993;28;83104;-67
2022/04/08 15:30:12;;;;;;;40.45;16.95;;;24.60;37.90;;;;;;6148021;28;82974;-68
2022/04/08 15:33:14;;;;;;;39.95;17.80;;;24.50;37.00;;;;;;6132530;28;83683;-68
2022/04/08 15:36:15;;;;;;;35.33;16.45;;;24.50;36.90;;;;;;6155922;28;83044;-70